Time;durP1;ratioP1;P1;durP2;ratioP2;P2;SDS_P1;SDS_P2;PMS_P1;PMS_P2;Temp;Humidity;BMP_temperature;BMP_pressure;BME280_temperature;BME280_humidity;BME280_pressure;Samples;Min_cycle;Max_cycle;Signal;HPM_P1;HPM_P2
2022/08/29 00:01:23;;;;;;;;;;;;;;;16.65;82.96;102296.19;5113859;28;19927;-32
2022/08/29 00:03:54;;;;;;;;;;;;;;;16.66;82.41;102289.41;5115055;28;20265;-31
2022/08/29 00:06:21;;;;;;;;;;;;;;;16.66;82.14;102285.75;5113589;28;19938;-36
2022/08/29 00:08:49;;;;;;;;;;;;;;;16.67;81.70;102282.63;5115120;28;19935;-40
2022/08/29 00:11:17;;;;;;;;;;;;;;;16.68;81.24;102281.50;5114017;28;19928;-33
2022/08/29 00:13:44;;;;;;;;;;;;;;;16.70;81.11;102282.03;5114135;28;19928;-41
2022/08/29 00:16:12;;;;;;;;;;;;;;;16.71;80.70;102277.22;5114976;28;19924;-36
2022/08/29 00:18:42;;;;;;;;;;;;;;;16.72;80.48;102288.22;5114182;28;19971;-34
2022/08/29 00:21:09;;;;;;;;;;;;;;;16.73;80.44;102281.44;5114720;28;19932;-36
2022/08/29 00:23:37;;;;;;;;;;;;;;;16.73;80.23;102284.25;5114701;28;19972;-31
2022/08/29 00:26:04;;;;;;;;;;;;;;;16.74;79.90;102288.75;5106892;28;20344;-40
2022/08/29 00:28:32;;;;;;;;;;;;;;;16.76;79.72;102288.44;5114594;28;20399;-32
2022/08/29 00:31:00;;;;;;;;;;;;;;;16.76;79.56;102280.81;5114511;28;19927;-35
2022/08/29 00:33:28;;;;;;;;;;;;;;;16.77;79.86;102276.84;5113471;28;19924;-31
2022/08/29 00:35:57;;;;;;;;;;;;;;;16.77;79.69;102278.84;5114550;28;19946;-36
2022/08/29 00:38:25;;;;;;;;;;;;;;;16.77;79.26;102282.50;5114401;28;19967;-33
2022/08/29 00:40:56;;;;;;;;;;;;;;;16.77;79.08;102281.66;5113487;28;20372;-31
2022/08/29 00:43:24;;;;;;;;;;;;;;;16.78;78.85;102288.97;5114076;28;20037;-41
2022/08/29 00:45:57;;;;;;;;;;;;;;;16.78;78.80;102287.00;5113654;28;19924;-39
2022/08/29 00:48:25;;;;;;;;;;;;;;;16.78;78.94;102291.78;5113975;28;19923;-31
2022/08/29 00:50:54;;;;;;;;;;;;;;;16.79;78.66;102285.81;5114321;28;19924;-32
2022/08/29 00:53:27;;;;;;;;;;;;;;;16.79;78.51;102285.81;5114158;28;19927;-33
2022/08/29 00:55:55;;;;;;;;;;;;;;;16.80;78.32;102289.47;5113573;28;19938;-35
2022/08/29 00:58:25;;;;;;;;;;;;;;;16.79;78.31;102288.63;5114014;28;19924;-34
2022/08/29 01:00:53;;;;;;;;;;;;;;;16.80;78.17;102286.66;5113294;28;19928;-41
2022/08/29 01:03:21;;;;;;;;;;;;;;;16.80;78.35;102289.47;5113812;28;19932;-33
2022/08/29 01:05:48;;;;;;;;;;;;;;;16.80;78.28;102292.28;5113936;28;19928;-42
2022/08/29 01:08:16;;;;;;;;;;;;;;;16.79;78.39;102297.09;5112845;28;19934;-40
2022/08/29 01:13:33;;;;;;;;;;;;;;;16.80;78.71;102298.78;5113798;28;19934;-31
2022/08/29 01:16:02;;;;;;;;;;;;;;;16.80;78.90;102298.78;5109454;28;19930;-35
2022/08/29 01:18:31;;;;;;;;;;;;;;;16.81;78.75;102306.09;5113667;28;19932;-32
2022/08/29 01:21:04;;;;;;;;;;;;;;;16.82;78.96;102304.94;5113439;28;19923;-39
2022/08/29 01:23:34;;;;;;;;;;;;;;;16.83;79.02;102309.44;5112815;28;19930;-32
2022/08/29 01:26:03;;;;;;;;;;;;;;;16.82;79.06;102309.75;5113453;28;19935;-33
2022/08/29 01:28:33;;;;;;;;;;;;;;;16.81;79.06;102299.59;5113310;28;19935;-32
2022/08/29 01:31:02;;;;;;;;;;;;;;;16.80;78.88;102304.41;5112594;28;19930;-32
2022/08/29 01:33:35;;;;;;;;;;;;;;;16.79;78.75;102301.91;5113408;28;19997;-34
2022/08/29 01:36:03;;;;;;;;;;;;;;;16.81;78.71;102306.09;5112721;28;19928;-35
2022/08/29 01:38:31;;;;;;;;;;;;;;;16.80;79.07;102303.56;5106537;28;20002;-33
2022/08/29 01:40:59;;;;;;;;;;;;;;;16.79;79.31;102308.38;5112950;28;19931;-32
2022/08/29 01:43:29;;;;;;;;;;;;;;;16.79;79.17;102297.09;5112645;28;19927;-32
2022/08/29 01:45:57;;;;;;;;;;;;;;;16.79;78.94;102294.28;5113060;28;20397;-32
2022/08/29 01:48:25;;;;;;;;;;;;;;;16.78;79.10;102295.44;5113028;28;20400;-34
2022/08/29 01:50:52;;;;;;;;;;;;;;;16.77;78.93;102299.41;5112371;28;19923;-33
2022/08/29 01:53:20;;;;;;;;;;;;;;;16.75;78.76;102298.88;5112951;28;19936;-38
2022/08/29 01:55:47;;;;;;;;;;;;;;;16.74;78.86;102297.19;5112541;28;19924;-36
2022/08/29 01:58:15;;;;;;;;;;;;;;;16.73;78.92;102294.69;5112333;28;19924;-32
2022/08/29 02:00:44;;;;;;;;;;;;;;;16.72;78.91;102307.94;5101898;28;20035;-35
2022/08/29 02:03:12;;;;;;;;;;;;;;;16.70;78.98;102304.59;5112846;28;19923;-41
2022/08/29 02:05:39;;;;;;;;;;;;;;;16.69;79.00;102302.91;5111958;28;19923;-35
2022/08/29 02:08:07;;;;;;;;;;;;;;;16.68;78.63;102306.03;5112624;28;19923;-32
2022/08/29 02:10:35;;;;;;;;;;;;;;;16.66;78.63;102300.69;5109330;28;20388;-45
2022/08/29 02:13:04;;;;;;;;;;;;;;;16.65;78.77;102307.47;5112246;28;19994;-42
2022/08/29 02:15:31;;;;;;;;;;;;;;;16.62;78.68;102296.78;5113107;28;19928;-33
2022/08/29 02:18:00;;;;;;;;;;;;;;;16.59;78.71;102300.19;5112222;28;20301;-41
2022/08/29 02:20:28;;;;;;;;;;;;;;;16.56;78.85;102303.66;5112895;28;19923;-38
2022/08/29 02:22:55;;;;;;;;;;;;;;;16.52;78.65;102291.31;5112398;28;19928;-38
2022/08/29 02:25:41;;;;;;;;;;;;;;;16.45;79.15;102300.13;5112085;28;19946;-41
2022/08/29 02:28:10;;;;;;;;;;;;;;;16.39;79.64;102297.69;5112505;28;20304;-33
2022/08/29 02:30:38;;;;;;;;;;;;;;;16.34;80.04;102306.22;5112641;28;19937;-36
2022/08/29 02:33:07;;;;;;;;;;;;;;;16.31;80.34;102295.56;5109225;28;19936;-32
2022/08/29 02:35:36;;;;;;;;;;;;;;;16.29;80.57;102303.47;5112536;28;19924;-32
2022/08/29 02:38:09;;;;;;;;;;;;;;;16.28;81.06;102296.16;5112709;28;19924;-31
2022/08/29 02:40:37;;;;;;;;;;;;;;;16.27;81.37;102297.28;5111631;28;19949;-31
2022/08/29 02:43:05;;;;;;;;;;;;;;;16.26;81.67;102293.63;5112432;28;19970;-33
2022/08/29 02:45:32;;;;;;;;;;;;;;;16.26;81.95;102295.63;5112312;28;19924;-36
2022/08/29 02:48:00;;;;;;;;;;;;;;;16.26;81.96;102293.63;5111771;28;20284;-33
2022/08/29 02:50:29;;;;;;;;;;;;;;;16.26;82.15;102288.00;5112521;28;19928;-32
2022/08/29 02:52:57;;;;;;;;;;;;;;;16.27;82.33;102298.13;5112609;28;19924;-39
2022/08/29 02:55:25;;;;;;;;;;;;;;;16.27;82.59;102298.13;5111581;28;19930;-40
2022/08/29 02:57:53;;;;;;;;;;;;;;;16.29;82.74;102298.66;5112199;28;19935;-32
2022/08/29 03:00:22;;;;;;;;;;;;;;;16.29;82.58;102289.38;5111444;28;19923;-38
2022/08/29 03:02:49;;;;;;;;;;;;;;;16.29;82.57;102284.59;5112287;28;19930;-32
2022/08/29 03:05:17;;;;;;;;;;;;;;;16.31;83.14;102281.47;5112234;28;19934;-32
2022/08/29 03:07:47;;;;;;;;;;;;;;;16.30;83.20;102286.25;5112505;28;20474;-31
2022/08/29 03:10:17;;;;;;;;;;;;;;;16.30;83.58;102280.63;5105462;28;19924;-36
2022/08/29 03:12:45;;;;;;;;;;;;;;;16.29;83.78;102286.56;5115910;28;19923;-34
2022/08/29 03:15:13;;;;;;;;;;;;;;;16.28;83.54;102291.34;5115374;28;20405;-35
2022/08/29 03:17:41;;;;;;;;;;;;;;;16.29;83.25;102295.00;5116454;28;19930;-33
2022/08/29 03:20:10;;;;;;;;;;;;;;;16.28;82.79;102298.97;5116219;28;19924;-35
2022/08/29 03:22:38;;;;;;;;;;;;;;;16.27;82.36;102295.31;5114857;28;20372;-37
2022/08/29 03:25:09;;;;;;;;;;;;;;;16.28;82.07;102285.72;5115666;28;19946;-33
2022/08/29 03:27:36;;;;;;;;;;;;;;;16.29;82.08;102281.78;5115758;28;20399;-34
2022/08/29 03:30:04;;;;;;;;;;;;;;;16.31;81.81;102287.09;5115072;28;19924;-37
2022/08/29 03:32:32;;;;;;;;;;;;;;;16.33;81.71;102287.66;5115784;28;19931;-32
2022/08/29 03:34:59;;;;;;;;;;;;;;;16.34;81.78;102287.34;5115150;28;20404;-35
2022/08/29 03:37:27;;;;;;;;;;;;;;;16.35;81.67;102283.38;5106463;28;19924;-36
2022/08/29 03:39:55;;;;;;;;;;;;;;;16.36;81.91;102279.44;5114789;28;19924;-32
2022/08/29 03:42:24;;;;;;;;;;;;;;;16.35;82.28;102289.03;5114776;28;19993;-32
2022/08/29 03:44:51;;;;;;;;;;;;;;;16.36;82.39;102282.25;5115680;28;19935;-32
2022/08/29 03:47:19;;;;;;;;;;;;;;;16.37;82.78;102274.63;5115513;28;20297;-34
2022/08/29 03:49:46;;;;;;;;;;;;;;;16.37;82.97;102275.47;5114505;28;19947;-32
2022/08/29 03:52:14;;;;;;;;;;;;;;;16.38;83.08;102279.13;5115168;28;19946;-33
2022/08/29 03:54:42;;;;;;;;;;;;;;;16.38;82.98;102273.50;5115775;28;19938;-39
2022/08/29 03:57:10;;;;;;;;;;;;;;;16.38;82.96;102267.84;5114716;28;19923;-33
2022/08/29 03:59:39;;;;;;;;;;;;;;;16.39;83.10;102266.69;5103779;28;19931;-39
2022/08/29 04:02:07;;;;;;;;;;;;;;;16.40;83.04;102262.72;5115146;28;19924;-42
2022/08/29 04:07:19;;;;;;;;;;;;;;;16.41;83.23;102273.69;5105469;28;19924;-36
2022/08/29 04:09:47;;;;;;;;;;;;;;;16.42;83.39;102272.56;5115179;28;19924;-35
2022/08/29 04:12:14;;;;;;;;;;;;;;;16.43;83.25;102267.75;5114467;28;19931;-33
2022/08/29 04:14:43;;;;;;;;;;;;;;;16.43;83.13;102270.56;5111174;28;19950;-32
2022/08/29 04:17:11;;;;;;;;;;;;;;;16.43;83.20;102277.03;5115432;28;19939;-32
2022/08/29 04:19:39;;;;;;;;;;;;;;;16.45;83.19;102279.56;5114201;28;20365;-38
2022/08/29 04:22:06;;;;;;;;;;;;;;;16.46;82.99;102276.44;5114942;28;19924;-40
2022/08/29 04:24:34;;;;;;;;;;;;;;;16.47;82.89;102280.94;5113914;28;19923;-37
2022/08/29 04:27:02;;;;;;;;;;;;;;;16.48;82.46;102273.31;5114606;28;19931;-32
2022/08/29 04:29:29;;;;;;;;;;;;;;;16.48;82.67;102285.44;5114632;28;19923;-38
2022/08/29 04:31:58;;;;;;;;;;;;;;;16.50;82.68;102280.34;5113450;28;19930;-44
2022/08/29 04:34:26;;;;;;;;;;;;;;;16.51;82.83;102281.16;5114814;28;19923;-33
2022/08/29 04:36:54;;;;;;;;;;;;;;;16.51;82.79;102284.81;5114573;28;19924;-38
2022/08/29 04:39:21;;;;;;;;;;;;;;;16.53;83.16;102284.53;5113640;28;19954;-37
2022/08/29 04:41:49;;;;;;;;;;;;;;;16.54;83.08;102286.19;5113891;28;19924;-41
2022/08/29 04:44:16;;;;;;;;;;;;;;;16.55;82.84;102285.06;5113664;28;20277;-32
2022/08/29 04:46:44;;;;;;;;;;;;;;;16.56;82.74;102292.38;5113283;28;19923;-40
2022/08/29 04:49:13;;;;;;;;;;;;;;;16.58;82.97;102290.09;5113742;28;20287;-41
2022/08/29 04:51:41;;;;;;;;;;;;;;;16.59;83.16;102291.75;5113741;28;19981;-31
2022/08/29 04:54:09;;;;;;;;;;;;;;;16.59;83.36;102297.38;5112449;28;19923;-34
2022/08/29 04:56:37;;;;;;;;;;;;;;;16.59;83.46;102297.38;5112761;28;19931;-35
2022/08/29 04:59:14;;;;;;;;;;;;;;;16.59;83.25;102297.38;5112792;28;19966;-33
2022/08/29 05:01:42;;;;;;;;;;;;;;;16.61;83.39;102299.91;5100175;28;19928;-35
2022/08/29 05:04:10;;;;;;;;;;;;;;;16.61;83.55;102295.09;5112483;28;20010;-32
2022/08/29 05:06:42;;;;;;;;;;;;;;;16.61;83.25;102291.44;5112160;28;19924;-35
2022/08/29 05:09:09;;;;;;;;;;;;;;;16.62;83.40;102296.78;5111783;28;19924;-40
2022/08/29 05:11:38;;;;;;;;;;;;;;;16.63;83.49;102303.25;5108285;28;19935;-41
2022/08/29 05:14:06;;;;;;;;;;;;;;;16.62;84.29;102305.22;5112174;28;20342;-35
2022/08/29 05:16:36;;;;;;;;;;;;;;;16.61;84.92;102295.09;5112974;28;19931;-32
2022/08/29 05:19:04;;;;;;;;;;;;;;;16.61;85.42;102300.72;5112629;28;19943;-40
2022/08/29 05:21:33;;;;;;;;;;;;;;;16.62;86.10;102298.75;5112142;28;19930;-32
2022/08/29 05:24:05;;;;;;;;;;;;;;;16.64;86.71;102304.97;5112784;28;20031;-35
2022/08/29 05:26:34;;;;;;;;;;;;;;;16.65;87.22;102307.47;5112550;28;20380;-32
2022/08/29 05:29:02;;;;;;;;;;;;;;;16.66;87.55;102311.97;5110668;28;20389;-41
2022/08/29 05:31:35;;;;;;;;;;;;;;;16.67;88.02;102313.66;5112021;28;19993;-33
2022/08/29 05:34:03;;;;;;;;;;;;;;;16.70;88.11;102321.50;5112262;28;20316;-32
2022/08/29 05:36:51;;;;;;;;;;;;;;;16.70;88.37;102323.47;5111993;28;19931;-32
2022/08/29 05:39:20;;;;;;;;;;;;;;;16.73;88.59;102320.91;5112645;28;19923;-30
2022/08/29 05:41:47;;;;;;;;;;;;;;;16.74;88.84;102321.72;5110994;28;19923;-41
2022/08/29 05:44:15;;;;;;;;;;;;;;;16.76;88.47;102327.91;5110495;28;19924;-36
2022/08/29 05:46:43;;;;;;;;;;;;;;;16.77;88.52;102315.50;5112025;28;19931;-32
2022/08/29 05:49:10;;;;;;;;;;;;;;;16.79;88.70;102318.81;5111406;28;20018;-32
2022/08/29 05:51:38;;;;;;;;;;;;;;;16.83;88.75;102336.78;5111955;28;19924;-38
2022/08/29 05:54:07;;;;;;;;;;;;;;;16.87;88.95;102329.41;5111963;28;19972;-41
2022/08/29 05:56:35;;;;;;;;;;;;;;;16.90;89.23;102336.44;5111545;28;19931;-39
2022/08/29 05:59:03;;;;;;;;;;;;;;;16.94;89.31;102337.50;5111490;28;19923;-38
2022/08/29 06:01:32;;;;;;;;;;;;;;;16.96;89.64;102335.22;5112177;28;19931;-34
2022/08/29 06:04:00;;;;;;;;;;;;;;;16.98;89.16;102330.94;5111365;28;20256;-32
2022/08/29 06:06:28;;;;;;;;;;;;;;;17.00;89.44;102325.81;5111933;28;19930;-31
2022/08/29 06:08:56;;;;;;;;;;;;;;;17.04;89.23;102331.66;5107045;28;19923;-32
2022/08/29 06:11:25;;;;;;;;;;;;;;;17.06;89.47;102330.22;5111016;28;19924;-37
2022/08/29 06:13:54;;;;;;;;;;;;;;;17.10;89.30;102330.44;5110481;28;19934;-33
2022/08/29 06:16:23;;;;;;;;;;;;;;;17.12;89.80;102333.81;5112020;28;19924;-37
2022/08/29 06:18:50;;;;;;;;;;;;;;;17.15;89.57;102334.03;5107282;28;20425;-33
2022/08/29 06:21:18;;;;;;;;;;;;;;;17.19;89.38;102334.22;5111914;28;19924;-33
2022/08/29 06:23:46;;;;;;;;;;;;;;;17.23;89.19;102335.28;5111169;28;19949;-34
2022/08/29 06:26:14;;;;;;;;;;;;;;;17.26;88.87;102334.69;5110807;28;20289;-31
2022/08/29 06:28:44;;;;;;;;;;;;;;;17.32;88.83;102339.09;5111041;28;19931;-32
2022/08/29 06:31:13;;;;;;;;;;;;;;;17.36;88.91;102343.00;5111126;28;20284;-32
2022/08/29 06:33:41;;;;;;;;;;;;;;;17.40;88.99;102341.19;5111163;28;20015;-32
2022/08/29 06:36:10;;;;;;;;;;;;;;;17.45;88.99;102341.13;5108486;28;19924;-41
2022/08/29 06:38:38;;;;;;;;;;;;;;;17.51;89.47;102339.88;5110747;28;19924;-33
2022/08/29 06:41:06;;;;;;;;;;;;;;;17.56;89.90;102336.13;5111278;28;20300;-33
2022/08/29 06:43:34;;;;;;;;;;;;;;;17.62;90.23;102337.69;5113487;28;19924;-32
2022/08/29 06:46:02;;;;;;;;;;;;;;;17.67;90.60;102345.28;5115021;28;19930;-32
2022/08/29 06:48:31;;;;;;;;;;;;;;;17.70;91.02;102344.66;5115699;28;20342;-34
2022/08/29 06:51:00;;;;;;;;;;;;;;;17.73;91.21;102344.03;5115686;28;19924;-41
2022/08/29 06:53:28;;;;;;;;;;;;;;;17.75;91.25;102345.41;5114603;28;20030;-40
2022/08/29 06:56:03;;;;;;;;;;;;;;;17.81;91.09;102346.13;5116346;28;20361;-32
2022/08/29 06:58:31;;;;;;;;;;;;;;;17.83;90.75;102350.31;5115804;28;20030;-33
2022/08/29 07:00:59;;;;;;;;;;;;;;;17.87;90.75;102345.72;5114899;28;20068;-38
2022/08/29 07:03:26;;;;;;;;;;;;;;;17.93;90.66;102349.28;5115333;28;19939;-32
2022/08/29 07:05:55;;;;;;;;;;;;;;;18.01;90.83;102348.53;5115235;28;20388;-33
2022/08/29 07:08:23;;;;;;;;;;;;;;;18.08;90.48;102348.97;5114837;28;19923;-32
2022/08/29 07:10:51;;;;;;;;;;;;;;;18.16;90.18;102341.75;5115478;28;19954;-32
2022/08/29 07:13:18;;;;;;;;;;;;;;;18.22;89.81;102352.63;5115402;28;20382;-33
2022/08/29 07:15:46;;;;;;;;;;;;;;;18.30;89.62;102347.41;5115564;28;19931;-37
2022/08/29 07:18:14;;;;;;;;;;;;;;;18.40;89.09;102344.31;5115374;28;19971;-38
2022/08/29 07:20:42;;;;;;;;;;;;;;;18.49;88.45;102345.28;5113764;28;20051;-36
2022/08/29 07:23:11;;;;;;;;;;;;;;;18.62;88.06;102343.59;5114784;28;19924;-40
2022/08/29 07:25:38;;;;;;;;;;;;;;;18.76;87.72;102350.06;5114752;28;19930;-33
2022/08/29 07:28:06;;;;;;;;;;;;;;;18.90;87.28;102343.22;5114366;28;19928;-42
2022/08/29 07:30:36;;;;;;;;;;;;;;;19.05;87.26;102339.16;5115078;28;19935;-33
2022/08/29 07:33:04;;;;;;;;;;;;;;;19.17;86.72;102347.09;5114787;28;19958;-32
2022/08/29 07:35:32;;;;;;;;;;;;;;;19.25;86.25;102349.13;5114274;28;19931;-44
2022/08/29 07:38:00;;;;;;;;;;;;;;;19.33;86.32;102356.88;5114848;28;19975;-34
2022/08/29 07:40:29;;;;;;;;;;;;;;;19.38;85.51;102353.06;5115065;28;19924;-38
2022/08/29 07:42:57;;;;;;;;;;;;;;;19.39;84.88;102358.38;5114190;28;20074;-37
2022/08/29 07:45:25;;;;;;;;;;;;;;;19.37;84.65;102346.56;5114858;28;19924;-39
2022/08/29 07:47:52;;;;;;;;;;;;;;;19.37;84.45;102365.56;5114517;28;19924;-32
2022/08/29 07:50:20;;;;;;;;;;;;;;;19.35;84.63;102365.88;5113205;28;19924;-32
2022/08/29 07:52:48;;;;;;;;;;;;;;;19.37;84.66;102360.72;5113708;28;19945;-41
2022/08/29 07:55:15;;;;;;;;;;;;;;;19.39;84.80;102358.38;5113482;28;19928;-32
2022/08/29 07:57:45;;;;;;;;;;;;;;;19.39;84.98;102355.56;5113305;28;19947;-38
2022/08/29 08:00:13;;;;;;;;;;;;;;;19.46;85.36;102355.09;5114194;28;20038;-37
2022/08/29 08:02:40;;;;;;;;;;;;;;;19.57;85.77;102353.72;5114127;28;19924;-42
2022/08/29 08:05:08;;;;;;;;;;;;;;;19.73;85.85;102352.16;5114217;28;19932;-32
2022/08/29 08:07:36;;;;;;;;;;;;;;;19.87;84.29;102349.22;5114169;28;20309;-35
2022/08/29 08:10:07;;;;;;;;;;;;;;;20.06;84.06;102357.47;5113179;28;19928;-41
2022/08/29 08:12:35;;;;;;;;;;;;;;;20.26;83.88;102359.69;5113208;28;19924;-38
2022/08/29 08:15:04;;;;;;;;;;;;;;;20.41;81.66;102370.59;5113929;28;19924;-36
2022/08/29 08:17:31;;;;;;;;;;;;;;;20.53;81.20;102364.31;5112755;28;19986;-32
2022/08/29 08:19:59;;;;;;;;;;;;;;;20.63;80.87;102370.50;5112620;28;19924;-37
2022/08/29 08:22:27;;;;;;;;;;;;;;;20.74;80.43;102371.03;5095254;28;20304;-32
2022/08/29 08:24:54;;;;;;;;;;;;;;;20.82;78.78;102367.34;5112878;28;20369;-33
2022/08/29 08:27:22;;;;;;;;;;;;;;;20.91;78.25;102365.38;5112996;28;19950;-35
2022/08/29 08:29:50;;;;;;;;;;;;;;;20.99;78.11;102367.34;5113606;28;19923;-32
2022/08/29 08:32:20;;;;;;;;;;;;;;;21.09;78.16;102371.88;5106244;28;19958;-32
2022/08/29 08:34:48;;;;;;;;;;;;;;;21.19;77.96;102371.53;5113783;28;19923;-33
2022/08/29 08:37:20;;;;;;;;;;;;;;;21.22;75.78;102368.06;5113477;28;19945;-33
2022/08/29 08:39:55;;;;;;;;;;;;;;;21.21;76.29;102366.38;5112954;28;19932;-35
2022/08/29 08:42:28;;;;;;;;;;;;;;;21.17;75.80;102370.22;5113444;28;19924;-32
2022/08/29 08:45:01;;;;;;;;;;;;;;;21.15;77.00;102364.03;5112947;28;19924;-38
2022/08/29 08:47:33;;;;;;;;;;;;;;;21.20;77.93;102361.03;5113625;28;19927;-36
2022/08/29 08:50:03;;;;;;;;;;;;;;;21.30;78.25;102364.38;5114100;28;19931;-31
2022/08/29 08:52:30;;;;;;;;;;;;;;;;;;5112468;28;19934;-32
2022/08/29 08:55:01;;;;;;;;;;;;;;;21.36;77.82;102364.22;5113494;28;19924;-37
2022/08/29 08:57:31;;;;;;;;;;;;;;;21.35;77.18;102368.22;5113212;28;19923;-33
2022/08/29 08:59:59;;;;;;;;;;;;;;;21.27;76.65;102364.22;5112261;28;19967;-41
2022/08/29 09:02:34;;;;;;;;;;;;;;;21.15;76.18;102373.41;5113116;28;19932;-33
2022/08/29 09:05:15;;;;;;;;;;;;;;;21.02;76.66;102376.38;5112446;28;19984;-42
2022/08/29 09:07:51;;;;;;;;;;;;;;;20.90;77.83;102375.06;5111757;28;19924;-37
2022/08/29 09:10:24;;;;;;;;;;;;;;;20.81;77.90;102376.19;5112290;28;19930;-36
2022/08/29 09:12:56;;;;;;;;;;;;;;;20.75;77.67;102380.38;5113093;28;19930;-38
2022/08/29 09:15:25;;;;;;;;;;;;;;;20.74;78.54;102371.03;5113128;28;20001;-39
2022/08/29 09:17:56;;;;;;;;;;;;;;;20.82;79.25;102366.50;5113048;28;19924;-39
2022/08/29 09:20:27;;;;;;;;;;;;;;;21.06;80.16;102366.03;5112031;28;19928;-43
2022/08/29 09:22:58;;;;;;;;;;;;;;;21.71;80.97;102364.97;5112488;28;19931;-33
2022/08/29 09:25:27;;;;;;;;;;;;;;;22.44;78.33;102360.00;5112370;28;19924;-41
2022/08/29 09:27:54;;;;;;;;;;;;;;;23.04;75.21;102371.00;5111880;28;20304;-34
2022/08/29 09:30:24;;;;;;;;;;;;;;;23.61;71.13;102365.44;5112670;28;19970;-40
2022/08/29 09:32:53;;;;;;;;;;;;;;;24.37;72.45;102370.59;5112310;28;19924;-36
2022/08/29 09:35:23;;;;;;;;;;;;;;;25.33;66.17;102367.06;5093603;28;19928;-42
2022/08/29 09:37:59;;;;;;;;;;;;;;;26.17;61.12;102366.97;5112643;28;20026;-36
2022/08/29 09:40:40;;;;;;;;;;;;;;;26.76;56.87;102370.50;5112388;28;19924;-34
2022/08/29 09:43:08;;;;;;;;;;;;;;;26.93;53.54;102368.44;5112117;28;20304;-39
2022/08/29 09:45:36;;;;;;;;;;;;;;;27.04;52.40;102370.34;5111279;28;20412;-39
2022/08/29 09:48:13;;;;;;;;;;;;;;;27.29;51.13;102373.75;5108593;28;20489;-36
2022/08/29 09:50:41;;;;;;;;;;;;;;;27.66;49.16;102359.78;5111750;28;19946;-39
2022/08/29 09:53:10;;;;;;;;;;;;;;;28.09;48.07;102354.84;5112323;28;19924;-40
2022/08/29 09:55:52;;;;;;;;;;;;;;;28.59;47.79;102350.75;5110369;28;20000;-43
2022/08/29 09:58:27;;;;;;;;;;;;;;;29.07;45.72;102351.88;5111891;28;20376;-38
2022/08/29 10:01:00;;;;;;;;;;;;;;;29.56;45.23;102355.81;5112163;28;20365;-34
2022/08/29 10:03:30;;;;;;;;;;;;;;;30.08;45.41;102348.97;5111018;28;19928;-39
2022/08/29 10:06:06;;;;;;;;;;;;;;;30.45;42.55;102345.97;5111816;28;19964;-35
2022/08/29 10:08:36;;;;;;;;;;;;;;;30.58;42.23;102355.13;5112125;28;19924;-36
2022/08/29 10:11:06;;;;;;;;;;;;;;;30.49;40.30;102353.41;5111030;28;20416;-34
2022/08/29 10:13:40;;;;;;;;;;;;;;;30.13;41.75;102349.44;5111006;28;20418;-37
2022/08/29 10:16:13;;;;;;;;;;;;;;;29.64;42.18;102358.34;5110773;28;19924;-33
2022/08/29 10:18:44;;;;;;;;;;;;;;;29.01;42.48;102356.31;5111996;28;20312;-33
2022/08/29 10:21:16;;;;;;;;;;;;;;;28.55;44.74;102357.69;5112038;28;19930;-34
2022/08/29 10:23:52;;;;;;;;;;;;;;;28.18;45.51;102357.47;5111198;28;19934;-35
2022/08/29 10:26:29;;;;;;;;;;;;;;;27.87;46.77;102359.34;5111703;28;19928;-34
2022/08/29 10:29:02;;;;;;;;;;;;;;;27.59;48.02;102359.63;5110174;28;19931;-34
2022/08/29 10:31:35;;;;;;;;;;;;;;;27.38;47.75;102362.03;5111099;28;19927;-34
2022/08/29 10:34:07;;;;;;;;;;;;;;;27.22;46.56;102369.91;5111624;28;20278;-34
2022/08/29 10:36:36;;;;;;;;;;;;;;;27.07;48.91;102365.91;5111756;28;19939;-34
2022/08/29 10:39:11;;;;;;;;;;;;;;;27.07;49.50;102361.00;5111235;28;19932;-42
2022/08/29 10:41:40;;;;;;;;;;;;;;;27.04;49.07;102367.47;5105563;28;20300;-37
2022/08/29 10:44:16;;;;;;;;;;;;;;;27.17;49.01;102358.75;5111553;28;19939;-35
2022/08/29 10:47:13;;;;;;;;;;;;;;;27.37;48.58;102369.00;5105492;28;20372;-34
2022/08/29 10:49:51;;;;;;;;;;;;;;;27.54;48.03;102364.84;5110112;28;20389;-40
2022/08/29 10:52:24;;;;;;;;;;;;;;;27.51;46.41;102354.13;5111004;28;19928;-34
2022/08/29 10:54:57;;;;;;;;;;;;;;;27.46;47.02;102361.00;5109900;28;19976;-39
2022/08/29 10:57:37;;;;;;;;;;;;;;;27.42;48.25;102357.22;5111615;28;19930;-34
2022/08/29 11:00:08;;;;;;;;;;;;;;;27.32;48.70;102358.66;5109698;28;19924;-40
2022/08/29 11:02:40;;;;;;;;;;;;;;;27.28;48.23;102362.66;5111847;28;19924;-33
2022/08/29 11:05:11;;;;;;;;;;;;;;;27.20;48.93;102360.84;5109191;28;20350;-33
2022/08/29 11:07:42;;;;;;;;;;;;;;;27.15;48.09;102366.91;5110574;28;19924;-35
2022/08/29 11:10:13;;;;;;;;;;;;;;;26.96;47.72;102373.44;5111721;28;19935;-38
2022/08/29 11:12:44;;;;;;;;;;;;;;;26.72;48.23;102372.47;5086228;28;20470;-34
2022/08/29 11:15:16;;;;;;;;;;;;;;;26.59;49.44;102370.91;5111641;28;19923;-35
2022/08/29 11:17:46;;;;;;;;;;;;;;;26.50;50.50;102360.88;5111571;28;19924;-32
2022/08/29 11:20:18;;;;;;;;;;;;;;;26.56;52.62;102357.34;5110615;28;19931;-36
2022/08/29 11:22:49;;;;;;;;;;;;;;;26.84;51.23;102357.16;5093302;28;20299;-43
2022/08/29 11:25:19;;;;;;;;;;;;;;;27.14;49.42;102356.63;5111571;28;19949;-32
2022/08/29 11:27:52;;;;;;;;;;;;;;;27.30;49.45;102360.25;5110816;28;19923;-34
2022/08/29 11:30:23;;;;;;;;;;;;;;;27.45;47.81;102351.56;5115058;28;19976;-36
2022/08/29 11:32:58;;;;;;;;;;;;;;;27.43;47.72;102356.84;5114975;28;19924;-36
2022/08/29 11:35:31;;;;;;;;;;;;;;;27.39;48.40;102358.78;5114445;28;19935;-33
2022/08/29 11:38:25;;;;;;;;;;;;;;;27.24;46.76;102356.84;5115228;28;20377;-34
2022/08/29 11:41:15;;;;;;;;;;;;;;;27.10;48.69;102357.38;5114192;28;19924;-37
2022/08/29 11:44:10;;;;;;;;;;;;;;;27.05;47.82;102351.09;5110841;28;20000;-38
2022/08/29 11:46:40;;;;;;;;;;;;;;;26.93;48.29;102348.38;5113571;28;19928;-32
2022/08/29 11:49:25;;;;;;;;;;;;;;;26.81;48.65;102354.22;5114052;28;19923;-35
2022/08/29 11:51:54;;;;;;;;;;;;;;;26.88;50.01;102358.09;5107804;28;19923;-44
2022/08/29 11:54:40;;;;;;;;;;;;;;;27.08;49.34;102356.94;5114744;28;19954;-37
2022/08/29 11:57:27;;;;;;;;;;;;;;;27.40;50.74;102348.97;5114559;28;19924;-32
2022/08/29 12:00:00;;;;;;;;;;;;;;;27.75;46.86;102350.94;5114493;28;19949;-32
2022/08/29 12:02:40;;;;;;;;;;;;;;;27.84;47.21;102339.19;5113750;28;19930;-38
2022/08/29 12:05:28;;;;;;;;;;;;;;;27.99;45.39;102339.06;5113279;28;19924;-35
2022/08/29 12:07:58;;;;;;;;;;;;;;;28.09;45.58;102338.44;5112086;28;20014;-33
2022/08/29 12:10:53;;;;;;;;;;;;;;;28.06;44.28;102344.94;5110663;28;19923;-39
2022/08/29 12:13:35;;;;;;;;;;;;;;;28.02;44.52;102338.31;5103584;28;19932;-34
2022/08/29 12:16:08;;;;;;;;;;;;;;;28.10;45.49;102339.28;5112803;28;19931;-36
2022/08/29 12:18:54;;;;;;;;;;;;;;;28.13;45.20;102341.38;5103238;28;19931;-44
2022/08/29 12:21:44;;;;;;;;;;;;;;;28.07;45.99;102329.38;5113158;28;19931;-39
2022/08/29 12:24:28;;;;;;;;;;;;;;;28.04;47.42;102332.19;5107800;28;19930;-40
2022/08/29 12:26:55;;;;;;;;;;;;;;;28.06;47.41;102327.72;5113989;28;20301;-36
2022/08/29 12:29:24;;;;;;;;;;;;;;;28.16;47.76;102326.25;5114158;28;19927;-40
2022/08/29 12:32:09;;;;;;;;;;;;;;;28.34;47.12;102315.91;5113384;28;19924;-39
2022/08/29 12:34:59;;;;;;;;;;;;;;;28.42;47.04;102320.53;5114099;28;19958;-38
2022/08/29 12:37:30;;;;;;;;;;;;;;;28.39;46.40;102315.56;5113512;28;19923;-41
2022/08/29 12:40:07;;;;;;;;;;;;;;;28.28;46.68;102317.47;5113929;28;19924;-36
2022/08/29 12:42:42;;;;;;;;;;;;;;;28.19;46.65;102321.75;5113869;28;19928;-41
2022/08/29 12:45:12;;;;;;;;;;;;;;;28.05;46.37;102323.19;5113186;28;19928;-39
2022/08/29 12:47:44;;;;;;;;;;;;;;;28.04;46.35;102317.84;5113550;28;19950;-36
2022/08/29 12:50:15;;;;;;;;;;;;;;;28.10;46.32;102322.03;5113837;28;19930;-39
2022/08/29 12:52:43;;;;;;;;;;;;;;;28.22;46.00;102310.38;5113014;28;19923;-33
2022/08/29 12:55:19;;;;;;;;;;;;;;;28.35;47.21;102305.25;5113303;28;19927;-38
2022/08/29 12:57:47;;;;;;;;;;;;;;;28.36;45.69;102307.75;5113587;28;20337;-34
2022/08/29 13:00:18;;;;;;;;;;;;;;;28.25;47.49;102305.91;5112654;28;19931;-33